createdAt,value
2019-05-02T00:00:15.380Z,992.4
2019-05-02T00:03:15.489Z,992.4
2019-05-02T00:06:14.905Z,992.4
2019-05-02T00:09:15.111Z,992.4
2019-05-02T00:12:15.731Z,992.4
2019-05-02T00:15:15.707Z,992.4
2019-05-02T00:18:15.287Z,992.4
2019-05-02T00:21:15.250Z,992.3
2019-05-02T00:24:15.635Z,992.4
2019-05-02T00:27:14.901Z,992.4
2019-05-02T00:30:15.064Z,992.4
2019-05-02T00:33:15.700Z,992.3
2019-05-02T00:36:15.146Z,992.3
2019-05-02T00:39:15.594Z,992.3
2019-05-02T00:42:17.710Z,992.2
2019-05-02T00:45:18.749Z,992.3
2019-05-02T00:48:19.229Z,992.2
2019-05-02T00:51:14.967Z,992.2
2019-05-02T00:54:19.192Z,992.1
2019-05-02T00:57:19.910Z,992.2
2019-05-02T01:00:18.404Z,992.3
2019-05-02T01:03:16.151Z,992.3
2019-05-02T01:06:15.610Z,992.2
2019-05-02T01:09:15.186Z,992.3
2019-05-02T01:12:26.227Z,992.2
2019-05-02T01:15:15.881Z,992.2
2019-05-02T01:18:15.386Z,992.2
2019-05-02T01:21:15.615Z,992.2
2019-05-02T01:24:15.605Z,992.2
2019-05-02T01:27:15.309Z,992.1
2019-05-02T01:30:15.247Z,992.1
2019-05-02T01:33:15.190Z,992.1
2019-05-02T01:42:15.577Z,992.0
2019-05-02T01:45:15.833Z,992.1
2019-05-02T01:48:15.399Z,992.1
2019-05-02T01:51:14.915Z,992.0
2019-05-02T01:54:15.375Z,992.0
2019-05-02T01:57:15.760Z,992.0
2019-05-02T02:00:15.365Z,992.0
2019-05-02T02:03:15.750Z,992.0
2019-05-02T02:06:15.434Z,991.9
2019-05-02T02:09:14.938Z,992.0
2019-05-02T02:12:15.325Z,991.9
2019-05-02T02:15:15.653Z,991.9
2019-05-02T02:18:15.621Z,991.9
2019-05-02T02:21:15.231Z,991.9
2019-05-02T02:24:15.637Z,991.9
2019-05-02T02:27:19.992Z,991.9
2019-05-02T02:30:17.495Z,991.8
2019-05-02T02:33:15.531Z,991.8
2019-05-02T02:36:15.107Z,991.9
2019-05-02T02:39:17.010Z,991.9
2019-05-02T02:42:15.511Z,991.8
2019-05-02T02:45:18.891Z,991.8
2019-05-02T02:48:15.744Z,991.9
2019-05-02T02:54:15.852Z,991.8
2019-05-02T02:57:25.665Z,991.8
2019-05-02T03:00:15.284Z,991.8
2019-05-02T03:03:20.973Z,991.7
2019-05-02T03:09:20.150Z,991.7
2019-05-02T03:12:14.986Z,991.6
2019-05-02T03:15:21.204Z,991.7
2019-05-02T03:18:14.866Z,991.7
2019-05-02T03:24:15.428Z,991.7
2019-05-02T03:30:29.413Z,991.7
2019-05-02T03:33:15.358Z,991.7
2019-05-02T03:36:28.968Z,991.7
2019-05-02T03:39:17.385Z,991.8
2019-05-02T03:42:15.587Z,991.7
2019-05-02T03:45:15.702Z,991.7
2019-05-02T03:48:18.250Z,991.8
2019-05-02T03:51:21.248Z,991.8
2019-05-02T03:54:15.059Z,991.8
2019-05-02T03:57:15.707Z,991.8
2019-05-02T04:00:21.122Z,991.8
2019-05-02T04:06:20.811Z,991.7
2019-05-02T04:09:15.100Z,991.8
2019-05-02T04:12:21.585Z,991.8
2019-05-02T04:15:15.190Z,991.8
2019-05-02T04:18:17.855Z,991.8
2019-05-02T04:21:15.906Z,991.8
2019-05-02T04:24:16.186Z,991.8
2019-05-02T04:27:15.231Z,991.8
2019-05-02T04:30:15.285Z,991.8
2019-05-02T04:33:15.634Z,991.8
2019-05-02T04:36:17.753Z,991.8
2019-05-02T04:39:20.454Z,991.7
2019-05-02T04:45:26.442Z,991.8
2019-05-02T04:48:18.230Z,991.8
2019-05-02T04:51:17.530Z,991.8
2019-05-02T04:54:23.196Z,991.7
2019-05-02T04:57:18.429Z,991.7
2019-05-02T05:00:18.471Z,991.8
2019-05-02T05:03:17.270Z,991.8
2019-05-02T05:06:14.886Z,991.8
2019-05-02T05:09:15.199Z,991.8
2019-05-02T05:12:17.664Z,991.8
2019-05-02T05:18:17.551Z,991.7
2019-05-02T05:21:17.600Z,991.8
2019-05-02T05:24:15.586Z,991.8
2019-05-02T05:27:18.834Z,991.9
2019-05-02T05:30:16.540Z,991.8
2019-05-02T05:33:15.004Z,991.9
2019-05-02T05:36:19.772Z,991.9
2019-05-02T05:39:17.605Z,992.0
2019-05-02T05:42:17.875Z,992.0
2019-05-02T05:45:15.087Z,992.0
2019-05-02T05:51:18.979Z,992.0
2019-05-02T05:54:17.733Z,992.1
2019-05-02T05:57:17.430Z,992.0
2019-05-02T06:00:22.645Z,992.0
2019-05-02T06:06:22.355Z,992.1
2019-05-02T06:09:15.352Z,992.1
2019-05-02T06:12:15.748Z,992.1
2019-05-02T06:15:15.990Z,992.1
2019-05-02T06:18:15.752Z,992.1
2019-05-02T06:21:17.087Z,992.2
2019-05-02T06:24:15.646Z,992.1
2019-05-02T06:27:15.611Z,992.2
2019-05-02T06:30:15.047Z,992.1
2019-05-02T06:33:15.567Z,992.1
2019-05-02T06:36:15.578Z,992.2
2019-05-02T06:39:15.088Z,992.2
2019-05-02T06:42:15.622Z,992.2
2019-05-02T06:45:15.266Z,992.2
2019-05-02T06:48:17.758Z,992.2
2019-05-02T06:51:19.693Z,992.2
2019-05-02T06:54:18.049Z,992.2
2019-05-02T06:57:19.079Z,992.3
2019-05-02T07:00:15.462Z,992.3
2019-05-02T07:03:15.780Z,992.2
2019-05-02T07:06:15.577Z,992.2
2019-05-02T07:09:15.292Z,992.2
2019-05-02T07:12:16.637Z,992.2
2019-05-02T07:15:15.546Z,992.2
2019-05-02T07:18:15.602Z,992.2
2019-05-02T07:21:17.846Z,992.2
2019-05-02T07:24:15.765Z,992.2
2019-05-02T07:27:15.502Z,992.2
2019-05-02T07:30:15.600Z,992.2
2019-05-02T07:33:15.124Z,992.2
2019-05-02T07:36:15.313Z,992.2
2019-05-02T07:39:14.945Z,992.2
2019-05-02T07:45:50.744Z,992.2
2019-05-02T07:48:32.331Z,992.1
2019-05-02T07:51:25.028Z,992.2
2019-05-02T07:54:29.632Z,992.2
2019-05-02T07:57:39.996Z,992.3
2019-05-02T08:00:49.658Z,992.3
2019-05-02T08:03:22.209Z,992.2
2019-05-02T08:06:34.953Z,992.3
2019-05-02T08:09:52.020Z,992.2
2019-05-02T08:12:29.580Z,992.1
2019-05-02T08:16:07.676Z,992.1
2019-05-02T08:18:15.138Z,992.1
2019-05-02T08:21:15.926Z,992.1
2019-05-02T08:24:15.430Z,992.1
2019-05-02T08:27:14.970Z,992.2
2019-05-02T08:30:15.577Z,992.1
2019-05-02T08:33:15.457Z,992.1
2019-05-02T08:36:15.184Z,992.1
2019-05-02T08:39:14.893Z,992.1
2019-05-02T08:42:15.688Z,992.1
2019-05-02T08:45:15.148Z,992.1
2019-05-02T08:48:14.948Z,992.1
2019-05-02T08:51:15.586Z,992.0
2019-05-02T08:54:15.121Z,992.0
2019-05-02T08:57:15.396Z,992.0
2019-05-02T09:00:15.557Z,992.0
2019-05-02T09:03:15.389Z,991.9
2019-05-02T09:06:17.291Z,991.9
2019-05-02T09:09:15.135Z,991.8
2019-05-02T09:12:15.674Z,991.9
2019-05-02T09:15:15.299Z,991.8
2019-05-02T09:18:16.111Z,991.7
2019-05-02T09:21:15.113Z,991.7
2019-05-02T09:24:21.146Z,991.7
2019-05-02T09:27:15.893Z,991.7
2019-05-02T09:30:17.290Z,991.7
2019-05-02T09:33:16.159Z,991.6
2019-05-02T09:36:15.932Z,991.6
2019-05-02T09:39:15.937Z,991.7
2019-05-02T09:42:18.865Z,991.6
2019-05-02T09:45:16.217Z,991.6
2019-05-02T09:48:17.217Z,991.5
2019-05-02T09:51:17.317Z,991.5
2019-05-02T09:54:15.706Z,991.4
2019-05-02T09:57:15.923Z,991.5
2019-05-02T10:00:15.679Z,991.4
2019-05-02T10:03:15.584Z,991.3
2019-05-02T10:06:18.232Z,991.2
2019-05-02T10:09:18.764Z,991.2
2019-05-02T10:12:15.894Z,991.2
2019-05-02T10:15:15.706Z,991.2
2019-05-02T10:18:19.555Z,991.2
2019-05-02T10:27:15.397Z,991.0
2019-05-02T10:30:16.047Z,991.0
2019-05-02T10:33:15.272Z,991.0
2019-05-02T10:36:19.545Z,990.9
2019-05-02T10:39:16.024Z,990.9
2019-05-02T10:42:15.882Z,990.9
2019-05-02T10:45:16.860Z,990.9
2019-05-02T10:48:27.443Z,990.8
2019-05-02T10:51:16.157Z,990.6
2019-05-02T10:54:15.284Z,990.6
2019-05-02T10:57:15.239Z,990.6
2019-05-02T11:00:16.248Z,990.6
2019-05-02T11:03:15.534Z,990.5
2019-05-02T11:06:16.098Z,990.5
2019-05-02T11:09:16.705Z,990.4
2019-05-02T11:12:16.296Z,990.4
2019-05-02T11:15:15.240Z,990.3
2019-05-02T11:18:15.745Z,990.3
2019-05-02T11:21:18.718Z,990.3
2019-05-02T11:24:15.427Z,990.3
2019-05-02T11:27:16.136Z,990.2
2019-05-02T11:30:16.876Z,990.2
2019-05-02T11:33:15.012Z,990.2
2019-05-02T11:36:15.862Z,990.2
2019-05-02T11:39:24.509Z,990.2
2019-05-02T11:42:17.745Z,990.1
2019-05-02T11:45:15.742Z,990.1
2019-05-02T11:48:15.617Z,990.1
2019-05-02T11:51:16.391Z,990.1
2019-05-02T11:54:15.055Z,990.1
2019-05-02T11:57:15.330Z,990.1
2019-05-02T12:00:15.386Z,990.1
2019-05-02T12:03:15.685Z,990.0
2019-05-02T12:06:19.531Z,990.0
2019-05-02T12:09:15.794Z,990.0
2019-05-02T12:12:15.757Z,989.9
2019-05-02T12:15:15.588Z,989.9
2019-05-02T12:18:15.637Z,989.9
2019-05-02T12:21:15.826Z,989.9
2019-05-02T12:24:15.857Z,989.9
2019-05-02T12:27:15.297Z,989.8
2019-05-02T12:30:15.027Z,989.9
2019-05-02T12:33:15.824Z,989.8
2019-05-02T12:36:15.724Z,989.8
2019-05-02T12:39:15.688Z,989.8
2019-05-02T12:42:15.288Z,989.7
2019-05-02T12:45:15.608Z,989.8
2019-05-02T12:48:15.230Z,989.7
2019-05-02T12:51:14.903Z,989.7
2019-05-02T12:54:15.420Z,989.6
2019-05-02T12:57:15.923Z,989.6
2019-05-02T13:00:18.308Z,989.7
2019-05-02T13:03:15.532Z,989.6
2019-05-02T13:06:15.864Z,989.5
2019-05-02T13:09:15.053Z,989.4
2019-05-02T13:12:15.748Z,989.4
2019-05-02T13:15:14.918Z,989.3
2019-05-02T13:18:18.745Z,989.3
2019-05-02T13:24:16.633Z,989.3
2019-05-02T13:27:15.693Z,989.2
2019-05-02T13:33:15.173Z,989.1
2019-05-02T13:36:15.454Z,989.1
2019-05-02T13:39:15.395Z,989.0
2019-05-02T13:42:15.951Z,989.0
2019-05-02T13:45:15.876Z,989.0
2019-05-02T13:48:15.375Z,988.9
2019-05-02T13:51:15.627Z,988.9
2019-05-02T13:54:15.348Z,988.8
2019-05-02T14:00:15.152Z,988.7
2019-05-02T14:03:15.673Z,988.7
2019-05-02T14:06:15.826Z,988.7
2019-05-02T14:09:19.832Z,988.7
2019-05-02T14:12:15.361Z,988.6
2019-05-02T14:15:15.544Z,988.6
2019-05-02T14:18:15.477Z,988.6
2019-05-02T14:21:14.992Z,988.4
2019-05-02T14:24:15.417Z,988.5
2019-05-02T14:27:17.272Z,988.4
2019-05-02T14:30:15.610Z,988.3
2019-05-02T14:33:15.499Z,988.3
2019-05-02T14:36:15.523Z,988.3
2019-05-02T14:39:15.741Z,988.3
2019-05-02T14:42:22.098Z,988.2
2019-05-02T14:45:27.543Z,988.2
2019-05-02T14:48:19.070Z,988.2
2019-05-02T14:51:16.761Z,988.2
2019-05-02T14:54:15.285Z,988.2
2019-05-02T14:57:17.008Z,988.1
2019-05-02T15:00:16.966Z,988.1
2019-05-02T15:03:19.066Z,988.0
2019-05-02T15:06:15.877Z,988.0
2019-05-02T15:09:16.751Z,988.0
2019-05-02T15:12:18.882Z,988.0
2019-05-02T15:15:14.941Z,988.0
2019-05-02T15:18:17.487Z,988.0
2019-05-02T15:21:16.439Z,988.0
2019-05-02T15:24:15.360Z,988.0
2019-05-02T15:27:17.652Z,988.0
2019-05-02T15:33:17.219Z,987.9
2019-05-02T15:36:15.757Z,987.9
2019-05-02T15:42:17.861Z,987.8
2019-05-02T15:45:15.800Z,987.9
2019-05-02T15:48:22.781Z,987.9
2019-05-02T15:51:15.773Z,987.9
2019-05-02T15:54:18.896Z,987.9
2019-05-02T15:57:18.926Z,987.8
2019-05-02T16:03:15.179Z,987.8
2019-05-02T16:06:16.578Z,987.7
2019-05-02T16:09:15.521Z,987.8
2019-05-02T16:12:15.065Z,987.7
2019-05-02T16:18:15.262Z,987.7
2019-05-02T16:21:18.386Z,987.7
2019-05-02T16:24:15.821Z,987.6
2019-05-02T16:27:16.346Z,987.7
2019-05-02T16:30:15.087Z,987.7
2019-05-02T16:33:19.545Z,987.7
2019-05-02T16:36:15.035Z,987.7
2019-05-02T16:42:15.340Z,987.7
2019-05-02T16:45:14.978Z,987.7
2019-05-02T16:48:14.904Z,987.7
2019-05-02T16:51:30.101Z,987.7
2019-05-02T16:54:15.736Z,987.7
2019-05-02T16:57:17.370Z,987.7
2019-05-02T17:00:15.623Z,987.7
2019-05-02T17:03:17.449Z,987.7
2019-05-02T17:06:16.952Z,987.7
2019-05-02T17:09:15.548Z,987.7
2019-05-02T17:12:15.587Z,987.8
2019-05-02T17:15:15.126Z,987.8
2019-05-02T17:18:18.100Z,987.8
2019-05-02T17:21:15.274Z,987.8
2019-05-02T17:24:17.406Z,987.8
2019-05-02T17:27:20.349Z,987.8
2019-05-02T17:30:15.470Z,987.8
2019-05-02T17:33:16.316Z,987.8
2019-05-02T17:39:14.900Z,987.8
2019-05-02T17:42:17.005Z,987.9
2019-05-02T17:45:15.944Z,987.9
2019-05-02T17:48:17.659Z,987.9
2019-05-02T17:51:15.385Z,987.9
2019-05-02T17:54:17.459Z,987.9
2019-05-02T17:57:15.123Z,987.9
2019-05-02T18:00:16.775Z,987.9
2019-05-02T18:03:15.898Z,987.9
2019-05-02T18:06:17.356Z,987.9
2019-05-02T18:09:15.706Z,988.0
2019-05-02T18:12:16.335Z,988.0
2019-05-02T18:15:15.757Z,988.0
2019-05-02T18:18:15.792Z,988.1
2019-05-02T18:21:17.226Z,988.0
2019-05-02T18:24:15.221Z,988.0
2019-05-02T18:27:15.734Z,988.1
2019-05-02T18:30:17.163Z,988.1
2019-05-02T18:33:15.005Z,988.2
2019-05-02T18:36:17.355Z,988.2
2019-05-02T18:39:14.948Z,988.2
2019-05-02T18:42:16.654Z,988.2
2019-05-02T18:45:15.484Z,988.3
2019-05-02T18:48:15.230Z,988.4
2019-05-02T18:51:17.236Z,988.4
2019-05-02T18:54:15.622Z,988.5
2019-05-02T18:57:17.090Z,988.6
2019-05-02T19:00:14.920Z,988.7
2019-05-02T19:03:17.302Z,988.8
2019-05-02T19:06:15.666Z,988.9
2019-05-02T19:09:17.518Z,988.9
2019-05-02T19:12:22.556Z,988.9
2019-05-02T19:15:15.360Z,989.0
2019-05-02T19:18:18.127Z,989.0
2019-05-02T19:21:14.855Z,989.0
2019-05-02T19:24:15.748Z,989.1
2019-05-02T19:27:15.858Z,989.1
2019-05-02T19:36:16.314Z,989.3
2019-05-02T19:39:15.753Z,989.3
2019-05-02T19:45:16.904Z,989.4
2019-05-02T19:48:15.079Z,989.4
2019-05-02T19:51:18.708Z,989.4
2019-05-02T19:54:15.996Z,989.4
2019-05-02T19:57:17.093Z,989.4
2019-05-02T20:00:15.423Z,989.3
2019-05-02T20:03:21.549Z,989.4
2019-05-02T20:06:15.742Z,989.4
2019-05-02T20:09:15.848Z,989.4
2019-05-02T20:12:15.673Z,989.4
2019-05-02T20:15:17.081Z,989.4
2019-05-02T20:18:15.767Z,989.3
2019-05-02T20:21:23.309Z,989.3
2019-05-02T20:24:19.337Z,989.3
2019-05-02T20:27:15.326Z,989.3
2019-05-02T20:30:15.423Z,989.4
2019-05-02T20:33:15.111Z,989.5
2019-05-02T20:36:15.876Z,989.4
2019-05-02T20:39:15.449Z,989.5
2019-05-02T20:42:15.103Z,989.4
2019-05-02T20:45:15.450Z,989.4
2019-05-02T20:48:15.684Z,989.6
2019-05-02T20:51:15.591Z,989.6
2019-05-02T20:54:15.322Z,989.6
2019-05-02T20:57:15.534Z,989.6
2019-05-02T21:00:15.039Z,989.6
2019-05-02T21:03:15.747Z,989.6
2019-05-02T21:06:15.253Z,989.6
2019-05-02T21:09:15.329Z,989.5
2019-05-02T21:12:15.857Z,989.6
2019-05-02T21:15:18.046Z,989.6
2019-05-02T21:18:16.194Z,989.6
2019-05-02T21:21:16.866Z,989.6
2019-05-02T21:24:16.358Z,989.5
2019-05-02T21:30:15.016Z,989.7
2019-05-02T21:33:15.563Z,989.7
2019-05-02T21:36:14.995Z,989.7
2019-05-02T21:39:15.517Z,989.8
2019-05-02T21:42:15.283Z,989.7
2019-05-02T21:45:15.266Z,989.7
2019-05-02T21:48:15.873Z,989.7
2019-05-02T21:51:14.958Z,989.7
2019-05-02T21:54:15.147Z,989.7
2019-05-02T21:57:15.796Z,989.7
2019-05-02T22:00:15.463Z,989.7
2019-05-02T22:03:15.254Z,989.8
2019-05-02T22:06:15.696Z,989.8
2019-05-02T22:09:15.747Z,989.8
2019-05-02T22:12:15.721Z,989.8
2019-05-02T22:15:14.995Z,989.8
2019-05-02T22:18:15.789Z,989.9
2019-05-02T22:21:15.382Z,989.9
2019-05-02T22:24:15.167Z,990.0
2019-05-02T22:27:15.781Z,990.0
2019-05-02T22:30:15.729Z,990.0
2019-05-02T22:33:15.502Z,990.0
2019-05-02T22:36:14.958Z,990.0
2019-05-02T22:42:15.467Z,990.1
2019-05-02T22:45:15.626Z,990.1
2019-05-02T22:48:15.406Z,990.0
2019-05-02T22:51:14.999Z,990.1
2019-05-02T22:57:15.828Z,990.1
2019-05-02T23:06:15.798Z,990.2
2019-05-02T23:09:15.330Z,990.2
2019-05-02T23:12:15.401Z,990.2
2019-05-02T23:21:15.340Z,990.2
2019-05-02T23:24:15.883Z,990.2
2019-05-02T23:27:15.812Z,990.2
2019-05-02T23:30:15.661Z,990.3
2019-05-02T23:33:14.976Z,990.3
2019-05-02T23:36:15.681Z,990.2
2019-05-02T23:39:15.137Z,990.3
2019-05-02T23:42:15.450Z,990.2
2019-05-02T23:45:14.815Z,990.3
2019-05-02T23:48:15.803Z,990.2
2019-05-02T23:51:15.799Z,990.2
2019-05-02T23:54:15.333Z,990.2
2019-05-02T23:57:15.636Z,990.2
